sensor_id;sensor_type;location;lat;lon;timestamp;pressure;altitude;pressure_sealevel;temperature;humidity
62703;BME280;66022;50.448;18.122;2023-03-03T00:01:45;99530.73;;;1.72;71.59
62703;BME280;66022;50.448;18.122;2023-03-03T00:06:00;99528.57;;;1.63;71.98
62703;BME280;66022;50.448;18.122;2023-03-03T00:10:13;99525.42;;;1.53;71.61
62703;BME280;66022;50.448;18.122;2023-03-03T00:14:28;99521.37;;;1.49;71.25
62703;BME280;66022;50.448;18.122;2023-03-03T00:18:43;99520.06;;;1.45;72.49
62703;BME280;66022;50.448;18.122;2023-03-03T00:22:57;99519.61;;;1.43;71.03
62703;BME280;66022;50.448;18.122;2023-03-03T00:35:37;99525.34;;;1.28;71.94
62703;BME280;66022;50.448;18.122;2023-03-03T00:39:51;99527.19;;;1.19;73.51
62703;BME280;66022;50.448;18.122;2023-03-03T00:52:34;99526.34;;;1.10;74.00
62703;BME280;66022;50.448;18.122;2023-03-03T00:56:47;99525.10;;;1.06;74.04
62703;BME280;66022;50.448;18.122;2023-03-03T01:01:01;99523.55;;;0.99;74.75
62703;BME280;66022;50.448;18.122;2023-03-03T01:05:16;99521.41;;;0.96;74.09
62703;BME280;66022;50.448;18.122;2023-03-03T01:09:29;99517.93;;;0.91;75.43
62703;BME280;66022;50.448;18.122;2023-03-03T01:13:44;99513.34;;;0.90;74.43
62703;BME280;66022;50.448;18.122;2023-03-03T01:17:57;99509.38;;;0.85;78.84
62703;BME280;66022;50.448;18.122;2023-03-03T01:22:11;99504.75;;;0.85;73.92
62703;BME280;66022;50.448;18.122;2023-03-03T01:26:25;99499.86;;;0.85;73.95
62703;BME280;66022;50.448;18.122;2023-03-03T01:30:40;99495.61;;;0.83;74.28
62703;BME280;66022;50.448;18.122;2023-03-03T01:34:53;99492.35;;;0.82;73.56
62703;BME280;66022;50.448;18.122;2023-03-03T01:39:09;99492.07;;;0.76;76.17
62703;BME280;66022;50.448;18.122;2023-03-03T01:43:22;99488.56;;;0.70;74.54
62703;BME280;66022;50.448;18.122;2023-03-03T01:47:35;99485.96;;;0.60;77.62
62703;BME280;66022;50.448;18.122;2023-03-03T01:51:51;99486.38;;;0.57;73.98
62703;BME280;66022;50.448;18.122;2023-03-03T01:56:04;99486.83;;;0.55;73.93
62703;BME280;66022;50.448;18.122;2023-03-03T02:00:17;99486.05;;;0.49;75.38
62703;BME280;66022;50.448;18.122;2023-03-03T02:04:32;99485.88;;;0.45;75.33
62703;BME280;66022;50.448;18.122;2023-03-03T02:12:59;99490.06;;;0.32;75.82
62703;BME280;66022;50.448;18.122;2023-03-03T02:17:13;99491.88;;;0.26;76.05
62703;BME280;66022;50.448;18.122;2023-03-03T02:21:27;99491.75;;;0.19;76.55
62703;BME280;66022;50.448;18.122;2023-03-03T02:25:48;99490.70;;;0.14;76.11
62703;BME280;66022;50.448;18.122;2023-03-03T02:29:56;99487.77;;;0.05;77.24
62703;BME280;66022;50.448;18.122;2023-03-03T02:34:09;99486.52;;;0.02;76.08
62703;BME280;66022;50.448;18.122;2023-03-03T02:38:28;99487.05;;;-0.05;80.22
62703;BME280;66022;50.448;18.122;2023-03-03T02:42:37;99486.70;;;-0.09;77.49
62703;BME280;66022;50.448;18.122;2023-03-03T02:46:52;99487.02;;;-0.16;77.95
62703;BME280;66022;50.448;18.122;2023-03-03T02:51:05;99486.88;;;-0.25;79.17
62703;BME280;66022;50.448;18.122;2023-03-03T02:55:19;99488.79;;;-0.31;79.37
62703;BME280;66022;50.448;18.122;2023-03-03T02:59:33;99491.09;;;-0.39;81.58
62703;BME280;66022;50.448;18.122;2023-03-03T03:03:47;99490.42;;;-0.42;80.28
62703;BME280;66022;50.448;18.122;2023-03-03T03:08:01;99489.95;;;-0.47;86.15
62703;BME280;66022;50.448;18.122;2023-03-03T03:12:15;99488.76;;;-0.45;80.56
62703;BME280;66022;50.448;18.122;2023-03-03T03:16:29;99486.13;;;-0.43;79.97
62703;BME280;66022;50.448;18.122;2023-03-03T03:20:43;99483.62;;;-0.40;80.72
62703;BME280;66022;50.448;18.122;2023-03-03T03:24:59;99482.44;;;-0.35;79.93
62703;BME280;66022;50.448;18.122;2023-03-03T03:29:12;99482.12;;;-0.30;82.13
62703;BME280;66022;50.448;18.122;2023-03-03T03:33:25;99481.30;;;-0.24;79.86
62703;BME280;66022;50.448;18.122;2023-03-03T03:37:40;99479.37;;;-0.22;84.20
62703;BME280;66022;50.448;18.122;2023-03-03T03:41:53;99479.47;;;-0.17;80.69
62703;BME280;66022;50.448;18.122;2023-03-03T03:46:07;99480.63;;;-0.14;80.58
62703;BME280;66022;50.448;18.122;2023-03-03T03:50:22;99481.20;;;-0.14;82.14
62703;BME280;66022;50.448;18.122;2023-03-03T03:54:35;99481.75;;;-0.12;81.43
62703;BME280;66022;50.448;18.122;2023-03-03T03:58:49;99482.58;;;-0.12;85.36
62703;BME280;66022;50.448;18.122;2023-03-03T04:03:03;99484.98;;;-0.08;81.31
62703;BME280;66022;50.448;18.122;2023-03-03T04:07:17;99487.34;;;-0.06;80.96
62703;BME280;66022;50.448;18.122;2023-03-03T04:11:31;99491.76;;;-0.02;81.31
62703;BME280;66022;50.448;18.122;2023-03-03T04:15:45;99495.98;;;0.03;80.61
62703;BME280;66022;50.448;18.122;2023-03-03T04:19:59;99498.29;;;0.03;81.87
62703;BME280;66022;50.448;18.122;2023-03-03T04:24:13;99499.29;;;0.06;80.76
62703;BME280;66022;50.448;18.122;2023-03-03T04:28:28;99498.97;;;0.07;85.64
62703;BME280;66022;50.448;18.122;2023-03-03T04:32:41;99499.08;;;0.12;81.02
62703;BME280;66022;50.448;18.122;2023-03-03T04:36:55;99500.58;;;0.15;80.83
62703;BME280;66022;50.448;18.122;2023-03-03T04:41:09;99501.20;;;0.18;81.74
62703;BME280;66022;50.448;18.122;2023-03-03T04:45:23;99501.86;;;0.21;81.56
62703;BME280;66022;50.448;18.122;2023-03-03T04:49:37;99501.70;;;0.22;83.36
62703;BME280;66022;50.448;18.122;2023-03-03T04:53:51;99504.52;;;0.26;81.18
62703;BME280;66022;50.448;18.122;2023-03-03T04:58:05;99507.12;;;0.27;87.61
62703;BME280;66022;50.448;18.122;2023-03-03T05:02:19;99508.81;;;0.32;81.98
62703;BME280;66022;50.448;18.122;2023-03-03T05:06:33;99510.97;;;0.36;81.65
62703;BME280;66022;50.448;18.122;2023-03-03T05:10:51;99513.50;;;0.39;82.91
62703;BME280;66022;50.448;18.122;2023-03-03T05:15:01;99516.55;;;0.43;81.93
62703;BME280;66022;50.448;18.122;2023-03-03T05:19:15;99519.44;;;0.45;84.83
62703;BME280;66022;50.448;18.122;2023-03-03T05:23:29;99523.41;;;0.50;82.95
62703;BME280;66022;50.448;18.122;2023-03-03T05:27:43;99526.06;;;0.49;87.85
62703;BME280;66022;50.448;18.122;2023-03-03T05:31:57;99528.88;;;0.53;82.78
62703;BME280;66022;50.448;18.122;2023-03-03T05:36:11;99531.60;;;0.57;82.77
62703;BME280;66022;50.448;18.122;2023-03-03T05:40:26;99535.19;;;0.58;83.98
62703;BME280;66022;50.448;18.122;2023-03-03T05:44:39;99536.84;;;0.62;82.94
62703;BME280;66022;50.448;18.122;2023-03-03T05:48:53;99539.04;;;0.64;85.69
62703;BME280;66022;50.448;18.122;2023-03-03T05:53:07;99541.94;;;0.69;82.37
62703;BME280;66022;50.448;18.122;2023-03-03T05:57:21;99543.55;;;0.74;82.14
62703;BME280;66022;50.448;18.122;2023-03-03T06:01:35;99545.20;;;0.79;82.75
62703;BME280;66022;50.448;18.122;2023-03-03T06:05:49;99548.38;;;0.83;82.04
62703;BME280;66022;50.448;18.122;2023-03-03T06:10:05;99552.72;;;0.82;83.43
62703;BME280;66022;50.448;18.122;2023-03-03T06:14:18;99555.16;;;0.87;82.14
62703;BME280;66022;50.448;18.122;2023-03-03T06:18:31;99558.84;;;0.90;86.04
62703;BME280;66022;50.448;18.122;2023-03-03T06:22:45;99558.87;;;0.95;82.03
62703;BME280;66022;50.448;18.122;2023-03-03T06:26:59;99558.00;;;1.00;81.58
62703;BME280;66022;50.448;18.122;2023-03-03T06:31:13;99558.58;;;1.04;82.34
62703;BME280;66022;50.448;18.122;2023-03-03T06:35:27;99560.47;;;1.08;81.80
62703;BME280;66022;50.448;18.122;2023-03-03T06:39:41;99563.12;;;1.08;83.30
62703;BME280;66022;50.448;18.122;2023-03-03T06:43:56;99563.86;;;1.12;81.82
62703;BME280;66022;50.448;18.122;2023-03-03T06:48:09;99564.72;;;1.13;87.77
62703;BME280;66022;50.448;18.122;2023-03-03T06:52:24;99564.17;;;1.19;82.32
62703;BME280;66022;50.448;18.122;2023-03-03T06:56:37;99561.72;;;1.24;81.61
62703;BME280;66022;50.448;18.122;2023-03-03T07:05:06;99557.36;;;1.35;81.05
62703;BME280;66022;50.448;18.122;2023-03-03T07:09:25;99558.87;;;1.40;83.25
62703;BME280;66022;50.448;18.122;2023-03-03T07:13:33;99562.45;;;1.46;81.47
62703;BME280;66022;50.448;18.122;2023-03-03T07:17:48;99563.32;;;1.47;85.42
62703;BME280;66022;50.448;18.122;2023-03-03T07:22:10;99561.03;;;1.53;80.91
62703;BME280;66022;50.448;18.122;2023-03-03T07:26:19;99561.38;;;1.58;80.74
62703;BME280;66022;50.448;18.122;2023-03-03T07:30:29;99564.48;;;1.60;81.80
62703;BME280;66022;50.448;18.122;2023-03-03T07:34:44;99568.11;;;1.64;80.75
62703;BME280;66022;50.448;18.122;2023-03-03T07:39:02;99572.86;;;1.66;83.12
62703;BME280;66022;50.448;18.122;2023-03-03T07:47:26;99578.05;;;1.73;82.06
62703;BME280;66022;50.448;18.122;2023-03-03T07:51:39;99579.61;;;1.77;81.10
62703;BME280;66022;50.448;18.122;2023-03-03T07:55:53;99582.83;;;1.81;81.39
62703;BME280;66022;50.448;18.122;2023-03-03T08:04:23;99582.98;;;1.85;80.64
62703;BME280;66022;50.448;18.122;2023-03-03T08:08:35;99584.22;;;1.85;83.86
62703;BME280;66022;50.448;18.122;2023-03-03T08:12:49;99585.86;;;1.89;80.91
62703;BME280;66022;50.448;18.122;2023-03-03T08:17:13;99588.95;;;1.93;80.68
62703;BME280;66022;50.448;18.122;2023-03-03T08:21:21;99594.31;;;1.98;81.02
62703;BME280;66022;50.448;18.122;2023-03-03T08:25:33;99600.59;;;2.02;80.53
62703;BME280;66022;50.448;18.122;2023-03-03T08:29:45;99605.13;;;2.00;82.12
62703;BME280;66022;50.448;18.122;2023-03-03T08:34:01;99605.94;;;2.04;80.94
62703;BME280;66022;50.448;18.122;2023-03-03T08:38:15;99605.85;;;2.04;84.58
62703;BME280;66022;50.448;18.122;2023-03-03T08:42:28;99603.92;;;2.08;80.29
62703;BME280;66022;50.448;18.122;2023-03-03T08:46:41;99602.34;;;2.11;79.66
62703;BME280;66022;50.448;18.122;2023-03-03T08:50:55;99601.87;;;2.13;80.11
62703;BME280;66022;50.448;18.122;2023-03-03T08:55:10;99603.02;;;2.17;80.04
62703;BME280;66022;50.448;18.122;2023-03-03T08:59:23;99603.88;;;2.19;81.37
62703;BME280;66022;50.448;18.122;2023-03-03T09:03:37;99602.81;;;2.24;79.47
62703;BME280;66022;50.448;18.122;2023-03-03T09:07:52;99599.95;;;2.23;83.23
62703;BME280;66022;50.448;18.122;2023-03-03T09:16:19;99596.93;;;2.30;79.04
62703;BME280;66022;50.448;18.122;2023-03-03T09:20:37;99598.10;;;2.30;79.77
62703;BME280;66022;50.448;18.122;2023-03-03T09:24:48;99598.07;;;2.33;78.38
62703;BME280;66022;50.448;18.122;2023-03-03T09:33:19;99602.08;;;2.36;79.47
62703;BME280;66022;50.448;18.122;2023-03-03T09:37:33;99601.92;;;2.36;81.16
62703;BME280;66022;50.448;18.122;2023-03-03T09:41:58;99603.27;;;2.38;79.33
62703;BME280;66022;50.448;18.122;2023-03-03T09:46:00;99604.33;;;2.41;78.86
62703;BME280;66022;50.448;18.122;2023-03-03T10:32:34;99631.90;;;2.48;78.89
62703;BME280;66022;50.448;18.122;2023-03-03T10:36:53;99635.13;;;2.49;78.60
62703;BME280;66022;50.448;18.122;2023-03-03T10:53:48;99638.64;;;2.51;78.31
62703;BME280;66022;50.448;18.122;2023-03-03T11:06:25;99636.49;;;2.51;77.85
62703;BME280;66022;50.448;18.122;2023-03-03T11:31:52;99625.87;;;2.57;77.79
62703;BME280;66022;50.448;18.122;2023-03-03T11:36:08;99623.42;;;2.59;77.57
62703;BME280;66022;50.448;18.122;2023-03-03T11:40:16;99621.59;;;2.57;77.09
62703;BME280;66022;50.448;18.122;2023-03-03T12:18:31;99611.35;;;3.07;76.78
62703;BME280;66022;50.448;18.122;2023-03-03T12:22:38;99609.16;;;3.15;75.37
62703;BME280;66022;50.448;18.122;2023-03-03T12:26:53;99606.48;;;3.22;74.62
62703;BME280;66022;50.448;18.122;2023-03-03T12:43:49;99596.01;;;3.49;74.00
62703;BME280;66022;50.448;18.122;2023-03-03T12:52:20;99592.13;;;3.57;73.01
62703;BME280;66022;50.448;18.122;2023-03-03T13:00:45;99588.20;;;3.63;73.79
62703;BME280;66022;50.448;18.122;2023-03-03T13:05:05;99587.41;;;3.64;73.90
62703;BME280;66022;50.448;18.122;2023-03-03T13:13:29;99585.83;;;3.64;73.91
62703;BME280;66022;50.448;18.122;2023-03-03T13:21:57;99584.64;;;3.63;73.80
62703;BME280;66022;50.448;18.122;2023-03-03T13:30:24;99583.99;;;3.58;74.55
62703;BME280;66022;50.448;18.122;2023-03-03T13:38:49;99582.04;;;3.54;75.71
62703;BME280;66022;50.448;18.122;2023-03-03T13:43:03;99580.63;;;3.53;74.58
62703;BME280;66022;50.448;18.122;2023-03-03T13:55:44;99573.56;;;3.46;74.19
62703;BME280;66022;50.448;18.122;2023-03-03T14:04:13;99567.58;;;3.38;74.34
62703;BME280;66022;50.448;18.122;2023-03-03T14:25:22;99569.69;;;3.27;74.57
62703;BME280;66022;50.448;18.122;2023-03-03T14:29:36;99571.77;;;3.23;75.58
62703;BME280;66022;50.448;18.122;2023-03-03T14:46:33;99570.03;;;3.14;75.21
62703;BME280;66022;50.448;18.122;2023-03-03T14:55:00;99565.83;;;3.10;75.14
62703;BME280;66022;50.448;18.122;2023-03-03T14:59:20;99563.04;;;3.08;76.09
62703;BME280;66022;50.448;18.122;2023-03-03T15:03:28;99560.38;;;3.07;75.10
62703;BME280;66022;50.448;18.122;2023-03-03T15:07:42;99556.94;;;3.03;77.56
62703;BME280;66022;50.448;18.122;2023-03-03T15:11:56;99553.44;;;3.03;75.06
62703;BME280;66022;50.448;18.122;2023-03-03T15:24:39;99547.52;;;3.02;74.84
62703;BME280;66022;50.448;18.122;2023-03-03T15:28:57;99546.67;;;2.99;76.00
62703;BME280;66022;50.448;18.122;2023-03-03T15:41:39;99540.84;;;2.97;75.20
62703;BME280;66022;50.448;18.122;2023-03-03T16:07:04;99531.37;;;2.84;75.94
62703;BME280;66022;50.448;18.122;2023-03-03T16:19:42;99533.15;;;2.81;76.19
62703;BME280;66022;50.448;18.122;2023-03-03T16:36:45;99533.34;;;2.87;75.12
62703;BME280;66022;50.448;18.122;2023-03-03T16:40:54;99531.81;;;2.86;75.49
62703;BME280;66022;50.448;18.122;2023-03-03T16:49:20;99532.04;;;2.84;76.23
62703;BME280;66022;50.448;18.122;2023-03-03T17:10:36;99546.06;;;2.70;75.77
62703;BME280;66022;50.448;18.122;2023-03-03T17:27:31;99557.58;;;2.66;75.66
62703;BME280;66022;50.448;18.122;2023-03-03T17:31:44;99559.22;;;2.64;75.73
62703;BME280;66022;50.448;18.122;2023-03-03T17:57:47;99552.45;;;2.59;75.55
62703;BME280;66022;50.448;18.122;2023-03-03T18:01:21;99551.87;;;2.59;75.89
62703;BME280;66022;50.448;18.122;2023-03-03T18:18:20;99550.92;;;2.58;78.61
62703;BME280;66022;50.448;18.122;2023-03-03T18:26:40;99553.41;;;2.63;75.38
62703;BME280;66022;50.448;18.122;2023-03-03T18:30:57;99554.16;;;2.63;75.66
62703;BME280;66022;50.448;18.122;2023-03-03T18:35:52;99554.49;;;2.65;75.45
62703;BME280;66022;50.448;18.122;2023-03-03T18:56:31;99548.77;;;2.58;75.52
62703;BME280;66022;50.448;18.122;2023-03-03T19:00:32;99546.42;;;2.56;76.15
62703;BME280;66022;50.448;18.122;2023-03-03T19:04:50;99544.95;;;2.58;75.68
62703;BME280;66022;50.448;18.122;2023-03-03T19:09:00;99543.09;;;2.57;76.79
62703;BME280;66022;50.448;18.122;2023-03-03T19:17:47;99541.30;;;2.57;75.63
62703;BME280;66022;50.448;18.122;2023-03-03T19:21:43;99541.19;;;2.56;76.02
62703;BME280;66022;50.448;18.122;2023-03-03T19:30:15;99541.74;;;2.49;76.26
62703;BME280;66022;50.448;18.122;2023-03-03T19:34:27;99541.03;;;2.50;75.94
62703;BME280;66022;50.448;18.122;2023-03-03T19:55:41;99540.11;;;2.45;75.69
62703;BME280;66022;50.448;18.122;2023-03-03T19:59:50;99540.31;;;2.42;76.63
62703;BME280;66022;50.448;18.122;2023-03-03T20:04:11;99540.06;;;2.42;75.72
62703;BME280;66022;50.448;18.122;2023-03-03T20:08:20;99539.09;;;2.37;79.12
62703;BME280;66022;50.448;18.122;2023-03-03T20:16:45;99540.58;;;2.38;75.67
62703;BME280;66022;50.448;18.122;2023-03-03T20:33:47;99543.48;;;2.38;75.98
62703;BME280;66022;50.448;18.122;2023-03-03T20:50:45;99537.44;;;2.37;76.73
62703;BME280;66022;50.448;18.122;2023-03-03T20:54:57;99536.05;;;2.39;76.30
62703;BME280;66022;50.448;18.122;2023-03-03T21:07:32;99529.39;;;2.44;76.14
62703;BME280;66022;50.448;18.122;2023-03-03T21:11:49;99527.84;;;2.45;76.21
62703;BME280;66022;50.448;18.122;2023-03-03T21:20:33;99525.22;;;2.42;76.72
62703;BME280;66022;50.448;18.122;2023-03-03T21:28:57;99519.74;;;2.42;78.13
62703;BME280;66022;50.448;18.122;2023-03-03T21:32:56;99517.11;;;2.43;76.12
62703;BME280;66022;50.448;18.122;2023-03-03T21:37:11;99512.97;;;2.44;76.10
62703;BME280;66022;50.448;18.122;2023-03-03T21:41:24;99507.61;;;2.44;76.17
62703;BME280;66022;50.448;18.122;2023-03-03T21:45:38;99502.72;;;2.45;75.97
62703;BME280;66022;50.448;18.122;2023-03-03T21:49:52;99498.30;;;2.43;76.62
62703;BME280;66022;50.448;18.122;2023-03-03T21:54:07;99494.59;;;2.45;75.91
62703;BME280;66022;50.448;18.122;2023-03-03T21:58:20;99490.64;;;2.41;79.29
62703;BME280;66022;50.448;18.122;2023-03-03T22:02:34;99487.43;;;2.43;76.35
62703;BME280;66022;50.448;18.122;2023-03-03T22:06:48;99483.78;;;2.44;76.10
62703;BME280;66022;50.448;18.122;2023-03-03T22:11:02;99479.97;;;2.43;76.46
62703;BME280;66022;50.448;18.122;2023-03-03T22:15:16;99477.26;;;2.44;76.22
62703;BME280;66022;50.448;18.122;2023-03-03T22:19:30;99472.17;;;2.43;77.15
62703;BME280;66022;50.448;18.122;2023-03-03T22:23:44;99466.56;;;2.44;76.18
62703;BME280;66022;50.448;18.122;2023-03-03T22:27:58;99461.02;;;2.39;79.47
62703;BME280;66022;50.448;18.122;2023-03-03T22:32:12;99454.96;;;2.39;76.62
62703;BME280;66022;50.448;18.122;2023-03-03T22:36:26;99448.91;;;2.39;76.43
62703;BME280;66022;50.448;18.122;2023-03-03T22:40:40;99443.55;;;2.36;76.93
62703;BME280;66022;50.448;18.122;2023-03-03T22:44:54;99438.23;;;2.36;76.56
62703;BME280;66022;50.448;18.122;2023-03-03T22:49:08;99433.29;;;2.31;77.62
62703;BME280;66022;50.448;18.122;2023-03-03T22:53:22;99427.94;;;2.28;76.08
62703;BME280;66022;50.448;18.122;2023-03-03T22:57:36;99422.33;;;2.25;76.91
62703;BME280;66022;50.448;18.122;2023-03-03T23:01:50;99417.05;;;2.21;76.64
62703;BME280;66022;50.448;18.122;2023-03-03T23:06:12;99412.55;;;2.19;76.12
62703;BME280;66022;50.448;18.122;2023-03-03T23:10:26;99408.34;;;2.12;76.69
62703;BME280;66022;50.448;18.122;2023-03-03T23:14:35;99405.94;;;2.12;75.96
62703;BME280;66022;50.448;18.122;2023-03-03T23:18:46;99402.73;;;2.09;78.40
62703;BME280;66022;50.448;18.122;2023-03-03T23:23:00;99398.80;;;2.08;76.23
62703;BME280;66022;50.448;18.122;2023-03-03T23:27:17;99396.24;;;2.07;76.18
62703;BME280;66022;50.448;18.122;2023-03-03T23:31:28;99394.31;;;2.06;76.41
62703;BME280;66022;50.448;18.122;2023-03-03T23:35:42;99391.38;;;2.04;76.33
62703;BME280;66022;50.448;18.122;2023-03-03T23:39:56;99388.40;;;1.98;77.05
62703;BME280;66022;50.448;18.122;2023-03-03T23:44:10;99386.41;;;1.99;76.24
62703;BME280;66022;50.448;18.122;2023-03-03T23:48:24;99383.73;;;1.97;79.21
62703;BME280;66022;50.448;18.122;2023-03-03T23:52:39;99382.30;;;1.99;76.48
62703;BME280;66022;50.448;18.122;2023-03-03T23:56:52;99379.89;;;2.01;76.29
